Time,TemperatureF,DewpointF,PressureIn,WindDirection,WindDirectionDegrees,WindSpeedMPH,WindSpeedGustMPH,Humidity,HourlyPrecipIn,Conditions,Clouds,dailyrainin,SoftwareType,DateUTC
2013-03-19 00:04:00,30.2,17.0,29.92,WNW,289,0.0,4.0,58,0.00,,,0.00,weatherlink.com 1.10,2013-03-19 06:04:00,
2013-03-19 00:19:00,30.1,16.0,29.91,SSE,149,0.0,4.0,56,0.00,,,0.00,weatherlink.com 1.10,2013-03-19 06:19:00,
2013-03-19 00:34:00,30.6,15.0,29.92,North,1,1.0,5.0,53,0.00,,,0.00,weatherlink.com 1.10,2013-03-19 06:34:00,
2013-03-19 00:49:00,31.4,15.0,29.91,SSW,197,0.0,4.0,51,0.00,,,0.00,weatherlink.com 1.10,2013-03-19 06:49:00,
2013-03-19 01:04:00,31.8,15.0,29.91,NNW,332,1.0,4.0,50,0.00,,,0.00,weatherlink.com 1.10,2013-03-19 07:04:00,
2013-03-19 01:19:00,32.8,20.0,29.91,NE,56,5.0,8.0,60,0.00,,,0.00,weatherlink.com 1.10,2013-03-19 07:19:00,
2013-03-19 01:34:00,33.1,20.0,29.92,NW,325,4.0,6.0,59,0.00,,,0.00,weatherlink.com 1.10,2013-03-19 07:34:00,
2013-03-19 01:49:00,33.4,20.0,29.92,NW,321,0.0,6.0,58,0.00,,,0.00,weatherlink.com 1.10,2013-03-19 07:49:00,
2013-03-19 02:04:00,33.4,20.0,29.94,West,271,2.0,6.0,59,0.00,,,0.00,weatherlink.com 1.10,2013-03-19 08:04:00,
2013-03-19 02:20:00,31.2,23.0,29.95,NNW,330,1.0,8.0,71,0.00,,,0.00,weatherlink.com 1.10,2013-03-19 08:20:00,
2013-03-19 02:35:00,30.4,24.0,29.94,SSW,194,0.0,5.0,76,0.00,,,0.00,weatherlink.com 1.10,2013-03-19 08:35:00,
2013-03-19 02:50:00,29.9,25.0,29.95,WSW,244,2.0,4.0,81,0.00,,,0.00,weatherlink.com 1.10,2013-03-19 08:50:00,
2013-03-19 03:05:00,29.5,25.0,29.95,West,261,0.0,2.0,82,0.00,,,0.00,weatherlink.com 1.10,2013-03-19 09:05:00,
2013-03-19 03:20:00,29.4,25.0,29.95,SW,222,1.0,1.0,82,0.00,,,0.00,weatherlink.com 1.10,2013-03-19 09:20:00,
2013-03-19 03:35:00,29.7,25.0,29.95,South,184,1.0,2.0,84,0.00,,,0.00,weatherlink.com 1.10,2013-03-19 09:35:00,
2013-03-19 03:50:00,29.6,25.0,29.96,WSW,248,1.0,3.0,83,0.00,,,0.00,weatherlink.com 1.10,2013-03-19 09:50:00,
2013-03-19 04:05:00,29.8,25.0,29.96,West,259,0.0,2.0,82,0.00,,,0.00,weatherlink.com 1.10,2013-03-19 10:05:00,
2013-03-19 04:20:00,30.4,24.0,29.97,West,267,2.0,6.0,78,0.00,,,0.00,weatherlink.com 1.10,2013-03-19 10:20:00,
2013-03-19 04:35:00,30.5,24.0,29.98,West,274,3.0,6.0,77,0.00,,,0.00,weatherlink.com 1.10,2013-03-19 10:35:00,
2013-03-19 04:50:00,30.0,24.0,29.99,WSW,245,4.0,7.0,79,0.00,,,0.00,weatherlink.com 1.10,2013-03-19 10:50:00,
2013-03-19 05:05:00,27.3,23.0,30.00,WNW,285,6.0,8.0,82,0.00,,,0.00,weatherlink.com 1.10,2013-03-19 11:05:00,
2013-03-19 05:20:00,-999.0,-99.9,30.00,North,-999,-999.0,-999.0,-999,0.00,,,0.00,weatherlink.com 1.10,2013-03-19 11:20:00,
2013-03-19 05:35:00,-999.0,-99.9,30.00,North,-999,-999.0,-999.0,-999,0.00,,,0.00,weatherlink.com 1.10,2013-03-19 11:35:00,
2013-03-19 05:50:00,-999.0,-99.9,30.00,North,-999,-999.0,-999.0,-999,0.00,,,0.00,weatherlink.com 1.10,2013-03-19 11:50:00,
2013-03-19 06:05:00,-999.0,-99.9,29.98,North,-999,-999.0,-999.0,-999,0.00,,,0.00,weatherlink.com 1.10,2013-03-19 12:05:00,
2013-03-19 06:20:00,-999.0,-99.9,29.98,North,-999,-999.0,-999.0,-999,0.00,,,0.00,weatherlink.com 1.10,2013-03-19 12:20:00,
2013-03-19 06:35:00,-999.0,-99.9,29.99,North,-999,-999.0,-999.0,-999,0.00,,,0.00,weatherlink.com 1.10,2013-03-19 12:35:00,
2013-03-19 06:51:00,-999.0,-99.9,30.01,North,-999,-999.0,-999.0,-999,0.00,,,0.00,weatherlink.com 1.10,2013-03-19 12:51:00,
2013-03-19 07:06:00,-999.0,-99.9,30.01,North,-999,-999.0,-999.0,-999,0.00,,,0.00,weatherlink.com 1.10,2013-03-19 13:06:00,
2013-03-19 07:21:00,-999.0,-99.9,30.03,North,-999,-999.0,-999.0,-999,0.00,,,0.00,weatherlink.com 1.10,2013-03-19 13:21:00,
2013-03-19 07:36:00,-999.0,-99.9,30.03,North,-999,-999.0,-999.0,-999,0.00,,,0.00,weatherlink.com 1.10,2013-03-19 13:36:00,
2013-03-19 08:06:00,27.8,23.0,30.05,West,260,2.0,2.0,83,0.00,,,0.00,weatherlink.com 1.10,2013-03-19 14:06:00,
2013-03-19 08:21:00,29.3,24.0,30.06,WNW,291,1.0,3.0,82,0.00,,,0.00,weatherlink.com 1.10,2013-03-19 14:21:00,
2013-03-19 08:36:00,30.6,25.0,30.06,WNW,284,1.0,4.0,79,0.00,,,0.00,weatherlink.com 1.10,2013-03-19 14:36:00,
2013-03-19 08:51:00,31.8,24.0,30.07,West,264,3.0,8.0,74,0.00,,,0.00,weatherlink.com 1.10,2013-03-19 14:51:00,
2013-03-19 09:06:00,32.8,25.0,30.07,WNW,288,3.0,6.0,74,0.00,,,0.00,weatherlink.com 1.10,2013-03-19 15:06:00,
2013-03-19 09:21:00,34.5,27.0,30.08,SW,224,3.0,5.0,73,0.00,,,0.00,weatherlink.com 1.10,2013-03-19 15:21:00,
2013-03-19 09:36:00,35.0,26.0,30.08,WSW,248,6.0,7.0,69,0.00,,,0.00,weatherlink.com 1.10,2013-03-19 15:36:00,
2013-03-19 09:51:00,36.1,27.0,30.08,WSW,239,3.0,7.0,69,0.00,,,0.00,weatherlink.com 1.10,2013-03-19 15:51:00,
2013-03-19 10:06:00,37.1,25.0,30.08,West,273,2.0,7.0,63,0.00,,,0.00,weatherlink.com 1.10,2013-03-19 16:06:00,
2013-03-19 10:21:00,38.3,24.0,30.08,WSW,238,7.0,9.0,56,0.00,,,0.00,weatherlink.com 1.10,2013-03-19 16:21:00,
2013-03-19 10:36:00,40.2,22.0,30.08,WNW,300,3.0,7.0,48,0.00,,,0.00,weatherlink.com 1.10,2013-03-19 16:36:00,
2013-03-19 10:51:00,40.8,22.0,30.08,WNW,288,4.0,15.0,48,0.00,,,0.00,weatherlink.com 1.10,2013-03-19 16:51:00,
2013-03-19 11:06:00,40.9,18.0,30.08,West,273,7.0,9.0,40,0.00,,,0.00,weatherlink.com 1.10,2013-03-19 17:06:00,
2013-03-19 11:22:00,42.5,15.0,30.07,West,262,5.0,12.0,33,0.00,,,0.00,weatherlink.com 1.10,2013-03-19 17:22:00,
2013-03-19 11:36:00,41.7,14.0,30.08,West,279,5.0,12.0,33,0.00,,,0.00,weatherlink.com 1.10,2013-03-19 17:36:00,
2013-03-19 11:52:00,39.4,20.0,30.08,WNW,301,12.0,22.0,46,0.00,,,0.00,weatherlink.com 1.10,2013-03-19 17:52:00,
2013-03-19 12:06:00,38.0,21.0,30.09,NNW,329,4.0,12.0,50,0.00,,,0.00,weatherlink.com 1.10,2013-03-19 18:06:00,
2013-03-19 12:21:00,39.7,18.0,30.08,WNW,295,7.0,15.0,42,0.00,,,0.00,weatherlink.com 1.10,2013-03-19 18:21:00,
2013-03-19 12:37:00,41.3,13.0,30.08,WSW,257,6.0,22.0,31,0.00,,,0.00,weatherlink.com 1.10,2013-03-19 18:37:00,
2013-03-19 12:52:00,43.2,12.0,30.07,WSW,240,11.0,22.0,28,0.00,,,0.00,weatherlink.com 1.10,2013-03-19 18:52:00,
2013-03-19 13:07:00,43.3,7.0,30.07,WNW,297,13.0,23.0,22,0.00,,,0.00,weatherlink.com 1.10,2013-03-19 19:07:00,
2013-03-19 13:22:00,42.3,19.0,30.08,WNW,295,16.0,25.0,40,0.00,,,0.00,weatherlink.com 1.10,2013-03-19 19:22:00,
2013-03-19 13:52:00,41.8,16.0,30.07,WNW,294,12.0,24.0,36,0.00,,,0.00,weatherlink.com 1.10,2013-03-19 19:52:00,
2013-03-19 14:07:00,42.6,17.0,30.08,NW,323,10.0,26.0,36,0.00,,,0.00,weatherlink.com 1.10,2013-03-19 20:07:00,
2013-03-19 14:22:00,42.1,16.0,30.07,WNW,297,9.0,22.0,35,0.00,,,0.00,weatherlink.com 1.10,2013-03-19 20:22:00,
2013-03-19 14:37:00,41.9,15.0,30.07,NW,311,12.0,26.0,34,0.00,,,0.00,weatherlink.com 1.10,2013-03-19 20:37:00,
2013-03-19 14:52:00,41.6,14.0,30.07,WNW,293,10.0,26.0,33,0.00,,,0.00,weatherlink.com 1.10,2013-03-19 20:52:00,
2013-03-19 15:07:00,44.2,7.0,30.06,WNW,288,20.0,34.0,22,0.00,,,0.00,weatherlink.com 1.10,2013-03-19 21:07:00,
2013-03-19 15:23:00,41.1,21.0,30.07,North,357,15.0,27.0,45,0.00,,,0.00,weatherlink.com 1.10,2013-03-19 21:23:00,
2013-03-19 15:37:00,42.0,21.0,30.09,NW,316,9.0,29.0,43,0.00,,,0.00,weatherlink.com 1.10,2013-03-19 21:37:00,
2013-03-19 15:52:00,41.6,20.0,30.09,NNW,332,9.0,21.0,43,0.00,,,0.00,weatherlink.com 1.10,2013-03-19 21:52:00,
2013-03-19 16:07:00,41.9,18.0,30.10,NE,39,11.0,22.0,39,0.00,,,0.00,weatherlink.com 1.10,2013-03-19 22:07:00,
2013-03-19 16:22:00,40.7,17.0,30.11,ENE,72,24.0,24.0,39,0.00,,,0.00,weatherlink.com 1.10,2013-03-19 22:22:00,
2013-03-19 16:37:00,39.7,22.0,30.12,NE,42,13.0,35.0,49,0.00,,,0.00,weatherlink.com 1.10,2013-03-19 22:37:00,
2013-03-19 16:54:00,37.5,21.0,30.13,NW,311,13.0,30.0,51,0.00,,,0.00,weatherlink.com 1.10,2013-03-19 22:54:00,
2013-03-19 17:07:00,37.3,20.0,30.14,NW,315,5.0,28.0,50,0.00,,,0.00,weatherlink.com 1.10,2013-03-19 23:07:00,
2013-03-19 17:22:00,37.0,20.0,30.15,ENE,57,18.0,23.0,51,0.00,,,0.00,weatherlink.com 1.10,2013-03-19 23:22:00,
2013-03-19 17:37:00,36.5,20.0,30.15,NNE,30,11.0,26.0,51,0.00,,,0.00,weatherlink.com 1.10,2013-03-19 23:37:00,
2013-03-19 17:52:00,36.8,20.0,30.15,NE,41,8.0,22.0,50,0.00,,,0.00,weatherlink.com 1.10,2013-03-19 23:52:00,
2013-03-19 18:07:00,35.7,19.0,30.15,SSW,211,8.0,28.0,50,0.00,,,0.00,weatherlink.com 1.10,2013-03-20 00:07:00,
2013-03-19 18:22:00,35.5,19.0,30.15,NNW,339,13.0,25.0,51,0.00,,,0.00,weatherlink.com 1.10,2013-03-20 00:22:00,
2013-03-19 18:37:00,35.1,18.0,30.16,NNE,27,12.0,22.0,51,0.00,,,0.00,weatherlink.com 1.10,2013-03-20 00:37:00,
2013-03-19 18:52:00,34.3,19.0,30.16,NNE,12,11.0,25.0,53,0.00,,,0.00,weatherlink.com 1.10,2013-03-20 00:52:00,
2013-03-19 19:07:00,32.8,18.0,30.18,NW,321,3.0,17.0,55,0.00,,,0.00,weatherlink.com 1.10,2013-03-20 01:07:00,
2013-03-19 19:22:00,31.8,18.0,30.20,NW,325,3.0,8.0,56,0.00,,,0.00,weatherlink.com 1.10,2013-03-20 01:22:00,
2013-03-19 19:37:00,31.4,17.0,30.20,NW,323,4.0,11.0,55,0.00,,,0.00,weatherlink.com 1.10,2013-03-20 01:37:00,
2013-03-19 19:52:00,31.0,16.0,30.21,SSW,208,8.0,13.0,55,0.00,,,0.00,weatherlink.com 1.10,2013-03-20 01:52:00,
2013-03-19 20:07:00,30.3,15.0,30.23,NW,319,2.0,9.0,53,0.00,,,0.00,weatherlink.com 1.10,2013-03-20 02:07:00,
2013-03-19 20:22:00,28.8,15.0,30.25,WSW,248,0.0,3.0,57,0.00,,,0.00,weatherlink.com 1.10,2013-03-20 02:22:00,
2013-03-19 20:37:00,28.0,15.0,30.26,WNW,287,2.0,4.0,58,0.00,,,0.00,weatherlink.com 1.10,2013-03-20 02:37:00,
2013-03-19 20:52:00,28.8,14.0,30.26,NNW,333,3.0,7.0,54,0.00,,,0.00,weatherlink.com 1.10,2013-03-20 02:52:00,
2013-03-19 21:07:00,28.5,13.0,30.28,WNW,295,2.0,5.0,53,0.00,,,0.00,weatherlink.com 1.10,2013-03-20 03:07:00,
2013-03-19 21:22:00,28.3,13.0,30.29,WNW,294,1.0,5.0,53,0.00,,,0.00,weatherlink.com 1.10,2013-03-20 03:22:00,
2013-03-19 21:38:00,27.5,13.0,30.30,South,169,1.0,2.0,54,0.00,,,0.00,weatherlink.com 1.10,2013-03-20 03:38:00,
2013-03-19 21:52:00,26.9,13.0,30.30,NNE,17,1.0,4.0,56,0.00,,,0.00,weatherlink.com 1.10,2013-03-20 03:52:00,
2013-03-19 22:07:00,26.9,13.0,30.30,NNW,340,0.0,2.0,55,0.00,,,0.00,weatherlink.com 1.10,2013-03-20 04:07:00,
2013-03-19 22:23:00,25.5,12.0,30.31,West,265,0.0,1.0,57,0.00,,,0.00,weatherlink.com 1.10,2013-03-20 04:23:00,
2013-03-19 22:38:00,24.7,12.0,30.31,West,280,0.0,1.0,60,0.00,,,0.00,weatherlink.com 1.10,2013-03-20 04:38:00,
2013-03-19 22:53:00,24.0,12.0,30.32,WNW,286,1.0,2.0,61,0.00,,,0.00,weatherlink.com 1.10,2013-03-20 04:53:00,
2013-03-19 23:08:00,23.3,12.0,30.32,NW,311,1.0,3.0,62,0.00,,,0.00,weatherlink.com 1.10,2013-03-20 05:08:00,
2013-03-19 23:23:00,23.0,12.0,30.32,WNW,282,0.0,1.0,63,0.00,,,0.00,weatherlink.com 1.10,2013-03-20 05:23:00,
2013-03-19 23:38:00,22.6,12.0,30.32,WNW,294,0.0,2.0,63,0.00,,,0.00,weatherlink.com 1.10,2013-03-20 05:38:00,
2013-03-19 23:53:00,21.2,11.0,30.32,NNW,347,0.0,3.0,64,0.00,,,0.00,weatherlink.com 1.10,2013-03-20 05:53:00,